createdAt,value
2019-05-29T00:02:15.875Z,8.70
2019-05-29T00:05:03.555Z,8.70
2019-05-29T00:07:32.330Z,8.60
2019-05-29T00:10:16.659Z,8.60
2019-05-29T00:12:45.393Z,8.60
2019-05-29T00:15:15.356Z,8.60
2019-05-29T00:20:58.794Z,8.50
2019-05-29T00:23:27.635Z,8.50
2019-05-29T00:26:08.539Z,8.40
2019-05-29T00:28:37.316Z,8.30
2019-05-29T00:31:08.175Z,8.30
2019-05-29T00:33:36.939Z,8.20
2019-05-29T00:36:10.379Z,8.10
2019-05-29T00:38:39.349Z,8.00
2019-05-29T00:41:26.351Z,7.90
2019-05-29T00:43:55.109Z,7.80
2019-05-29T00:46:33.277Z,7.80
2019-05-29T00:49:02.051Z,7.80
2019-05-29T00:51:40.269Z,7.80
2019-05-29T00:54:10.231Z,7.70
2019-05-29T00:56:57.302Z,7.70
2019-05-29T00:59:26.045Z,7.40
2019-05-29T01:01:55.840Z,7.50
2019-05-29T01:04:24.583Z,7.50
2019-05-29T01:10:14.614Z,7.40
2019-05-29T01:12:43.449Z,7.30
2019-05-29T01:15:39.446Z,7.20
2019-05-29T01:18:08.222Z,7.10
2019-05-29T01:20:37.000Z,7.10
2019-05-29T01:23:18.880Z,7.10
2019-05-29T01:25:47.650Z,7.10
2019-05-29T01:28:23.840Z,6.90
2019-05-29T01:30:52.581Z,6.90
2019-05-29T01:33:39.524Z,6.80
2019-05-29T01:36:08.271Z,6.80
2019-05-29T01:38:52.377Z,6.80
2019-05-29T01:41:21.490Z,6.80
2019-05-29T01:43:55.743Z,6.70
2019-05-29T01:46:24.546Z,6.70
2019-05-29T01:49:05.467Z,6.70
2019-05-29T01:51:34.217Z,6.60
2019-05-29T01:54:06.363Z,6.40
2019-05-29T01:56:35.146Z,6.50
2019-05-29T01:59:12.035Z,6.40
2019-05-29T02:01:40.809Z,6.40
2019-05-29T02:04:21.989Z,6.40
2019-05-29T02:06:50.763Z,6.40
2019-05-29T02:09:20.253Z,6.30
2019-05-29T02:11:50.159Z,6.30
2019-05-29T02:14:18.900Z,6.30
2019-05-29T02:16:47.665Z,6.30
2019-05-29T02:19:17.685Z,6.30
2019-05-29T02:21:51.599Z,6.20
2019-05-29T02:24:21.162Z,6.10
2019-05-29T02:29:43.694Z,6.10
2019-05-29T02:32:12.442Z,6.10
2019-05-29T02:34:46.801Z,6.10
2019-05-29T02:37:15.563Z,6.00
2019-05-29T02:40:01.445Z,6.00
2019-05-29T02:42:30.211Z,5.90
2019-05-29T02:45:03.316Z,5.90
2019-05-29T02:47:32.082Z,5.90
2019-05-29T02:50:00.827Z,5.90
2019-05-29T02:52:45.069Z,5.90
2019-05-29T02:55:14.013Z,5.80
2019-05-29T02:57:42.848Z,5.80
2019-05-29T03:00:11.888Z,5.80
2019-05-29T03:02:40.634Z,5.80
2019-05-29T03:05:10.423Z,5.70
2019-05-29T03:07:39.148Z,5.70
2019-05-29T03:10:09.275Z,5.70
2019-05-29T03:12:39.304Z,5.60
2019-05-29T03:15:08.241Z,5.70
2019-05-29T03:20:37.185Z,5.70
2019-05-29T03:25:35.110Z,5.70
2019-05-29T03:31:02.972Z,5.70
2019-05-29T03:33:39.372Z,5.70
2019-05-29T03:36:02.154Z,5.70
2019-05-29T03:38:34.272Z,5.70
2019-05-29T03:43:36.268Z,5.70
2019-05-29T03:49:06.952Z,5.70
2019-05-29T03:51:37.177Z,5.70
2019-05-29T03:54:14.463Z,5.80
2019-05-29T03:56:43.206Z,5.80
2019-05-29T03:59:15.121Z,5.80
2019-05-29T04:01:43.869Z,5.90
2019-05-29T04:04:12.663Z,5.90
2019-05-29T04:06:41.438Z,5.90
2019-05-29T04:09:14.461Z,6.00
2019-05-29T04:11:43.234Z,6.00
2019-05-29T04:14:31.645Z,6.00
2019-05-29T04:17:02.233Z,6.10
2019-05-29T04:19:34.854Z,6.10
2019-05-29T04:27:52.714Z,6.40
2019-05-29T04:30:21.558Z,6.50
2019-05-29T04:32:51.388Z,6.50
2019-05-29T04:35:20.131Z,6.60
2019-05-29T04:40:41.047Z,6.80
2019-05-29T04:43:09.922Z,6.90
2019-05-29T04:45:40.054Z,6.90
2019-05-29T04:48:09.075Z,7.00
2019-05-29T04:50:40.203Z,7.00
2019-05-29T04:53:08.282Z,7.10
2019-05-29T04:55:37.113Z,7.10
2019-05-29T04:58:05.930Z,7.20
2019-05-29T05:00:37.840Z,7.30
2019-05-29T05:03:06.678Z,7.40
2019-05-29T05:05:35.445Z,7.40
2019-05-29T05:08:08.266Z,7.40
2019-05-29T05:13:44.539Z,7.50
2019-05-29T05:16:13.319Z,7.60
2019-05-29T05:18:42.134Z,7.80
2019-05-29T05:21:13.989Z,7.90
2019-05-29T05:23:42.799Z,8.00
2019-05-29T05:26:11.601Z,8.10
2019-05-29T05:28:45.933Z,8.20
2019-05-29T05:34:12.455Z,8.30
2019-05-29T05:36:41.299Z,8.40
2019-05-29T05:39:10.151Z,8.50
2019-05-29T05:41:45.368Z,8.60
2019-05-29T05:44:14.208Z,8.70
2019-05-29T05:46:43.063Z,8.70
2019-05-29T05:49:11.976Z,8.80
2019-05-29T05:51:44.203Z,8.90
2019-05-29T05:54:11.372Z,9.00
2019-05-29T05:56:41.794Z,9.10
2019-05-29T05:59:10.677Z,9.20
2019-05-29T06:01:40.039Z,9.40
2019-05-29T06:04:16.129Z,9.60
2019-05-29T06:06:44.889Z,9.60
2019-05-29T06:09:13.725Z,9.80
2019-05-29T06:11:48.065Z,9.90
2019-05-29T06:14:16.873Z,10.00
2019-05-29T06:16:45.655Z,10.10
2019-05-29T06:19:14.575Z,10.30
2019-05-29T06:21:43.440Z,10.30
2019-05-29T06:24:12.217Z,10.50
2019-05-29T06:27:00.670Z,10.60
2019-05-29T06:29:29.649Z,10.70
2019-05-29T06:31:58.583Z,10.70
2019-05-29T06:36:58.795Z,10.90
2019-05-29T06:39:27.559Z,11.00
2019-05-29T06:41:56.488Z,11.00
2019-05-29T06:44:47.355Z,11.10
2019-05-29T06:47:14.952Z,11.20
2019-05-29T06:49:44.346Z,11.30
2019-05-29T06:52:13.210Z,11.50
2019-05-29T06:54:42.043Z,11.50
2019-05-29T06:57:10.811Z,11.60
2019-05-29T06:59:40.472Z,11.70
2019-05-29T07:02:09.485Z,11.80
2019-05-29T07:04:38.317Z,11.80
2019-05-29T07:07:07.054Z,12.00
2019-05-29T07:09:36.807Z,12.10
2019-05-29T07:12:05.706Z,12.30
2019-05-29T07:14:34.482Z,12.30
2019-05-29T07:17:03.338Z,12.40
2019-05-29T07:19:47.643Z,12.60
2019-05-29T07:22:02.272Z,12.70
2019-05-29T07:24:31.060Z,12.80
2019-05-29T07:26:59.822Z,13.10
2019-05-29T07:29:28.476Z,13.00
2019-05-29T07:31:57.163Z,13.10
2019-05-29T07:34:25.984Z,13.10
2019-05-29T07:36:54.716Z,13.10
2019-05-29T07:39:23.427Z,13.20
2019-05-29T07:41:52.191Z,13.30
2019-05-29T07:44:20.922Z,13.50
2019-05-29T07:46:49.703Z,13.60
2019-05-29T07:49:18.557Z,13.40
2019-05-29T07:51:48.624Z,13.30
2019-05-29T07:54:17.533Z,13.00
2019-05-29T07:56:46.616Z,13.20
2019-05-29T07:59:15.425Z,13.40
2019-05-29T08:01:44.821Z,13.60
2019-05-29T08:04:13.783Z,13.90
2019-05-29T08:06:49.220Z,13.90
2019-05-29T08:09:13.110Z,13.90
2019-05-29T08:11:41.815Z,14.30
2019-05-29T08:14:10.516Z,14.50
2019-05-29T08:16:39.793Z,14.40
2019-05-29T08:19:08.428Z,14.30
2019-05-29T08:21:37.129Z,14.40
2019-05-29T08:24:05.944Z,14.10
2019-05-29T08:26:34.650Z,14.10
2019-05-29T08:29:03.418Z,14.10
2019-05-29T08:31:32.132Z,14.40
2019-05-29T08:34:01.029Z,14.70
2019-05-29T08:36:29.660Z,15.10
2019-05-29T08:38:58.379Z,15.40
2019-05-29T08:41:27.155Z,15.60
2019-05-29T08:43:55.939Z,15.80
2019-05-29T08:46:24.733Z,16.10
2019-05-29T08:48:53.495Z,16.20
2019-05-29T08:51:22.291Z,16.30
2019-05-29T08:53:52.477Z,16.60
2019-05-29T08:56:21.511Z,16.70
2019-05-29T08:58:50.648Z,17.00
2019-05-29T09:01:19.580Z,16.90
2019-05-29T09:03:48.912Z,16.70
2019-05-29T09:06:17.835Z,16.20
2019-05-29T09:08:48.072Z,16.20
2019-05-29T09:11:16.979Z,15.60
2019-05-29T09:13:45.702Z,15.20
2019-05-29T09:16:14.477Z,15.30
2019-05-29T09:18:43.263Z,15.40
2019-05-29T09:21:12.472Z,15.80
2019-05-29T09:23:42.504Z,15.90
2019-05-29T09:26:15.894Z,15.70
2019-05-29T09:28:41.582Z,15.70
2019-05-29T09:31:10.354Z,15.50
2019-05-29T09:33:58.492Z,15.70
2019-05-29T09:36:42.094Z,16.00
2019-05-29T09:42:19.944Z,15.70
2019-05-29T09:44:48.660Z,15.70
2019-05-29T09:47:22.013Z,16.00
2019-05-29T09:53:36.541Z,16.40
2019-05-29T09:56:05.512Z,16.90
2019-05-29T09:59:09.850Z,17.70
2019-05-29T10:01:41.221Z,18.20
2019-05-29T10:04:10.087Z,18.50
2019-05-29T10:07:02.134Z,18.40
2019-05-29T10:09:30.924Z,18.30
2019-05-29T10:12:06.369Z,18.00
2019-05-29T10:14:37.268Z,18.10
2019-05-29T10:17:12.542Z,18.30
2019-05-29T10:19:39.410Z,18.90
2019-05-29T10:22:45.014Z,19.10
2019-05-29T10:25:14.654Z,19.00
2019-05-29T10:27:43.653Z,18.20
2019-05-29T10:30:13.533Z,18.30
2019-05-29T10:32:43.139Z,18.00
2019-05-29T10:35:13.107Z,17.90
2019-05-29T10:37:42.795Z,18.50
2019-05-29T10:40:12.274Z,18.90
2019-05-29T10:42:41.172Z,18.80
2019-05-29T10:45:18.091Z,18.60
2019-05-29T10:47:47.444Z,18.60
2019-05-29T10:50:16.917Z,19.00
2019-05-29T10:53:03.819Z,19.20
2019-05-29T10:55:32.599Z,19.00
2019-05-29T10:58:20.849Z,19.40
2019-05-29T11:00:51.131Z,19.70
2019-05-29T11:03:20.120Z,20.00
2019-05-29T11:06:26.064Z,20.20
2019-05-29T11:08:56.121Z,20.10
2019-05-29T11:11:25.216Z,20.50
2019-05-29T11:13:55.181Z,20.50
2019-05-29T11:16:24.225Z,20.00
2019-05-29T11:18:53.404Z,19.60
2019-05-29T11:21:22.410Z,17.90
2019-05-29T11:24:06.844Z,17.70
2019-05-29T11:26:35.658Z,17.40
2019-05-29T11:29:04.567Z,17.30
2019-05-29T11:31:36.417Z,17.50
2019-05-29T11:34:05.326Z,17.90
2019-05-29T11:36:34.245Z,17.70
2019-05-29T11:39:06.079Z,17.90
2019-05-29T11:41:33.453Z,17.80
2019-05-29T11:44:03.225Z,18.50
2019-05-29T11:47:27.220Z,19.20
2019-05-29T11:50:00.331Z,19.20
2019-05-29T11:52:41.788Z,19.10
2019-05-29T11:54:59.979Z,18.90
2019-05-29T11:57:27.470Z,18.70
2019-05-29T12:00:00.105Z,18.50
2019-05-29T12:02:26.763Z,18.30
2019-05-29T12:04:55.596Z,19.20
2019-05-29T12:07:24.448Z,19.20
2019-05-29T12:09:53.377Z,19.60
2019-05-29T12:12:22.282Z,19.90
2019-05-29T12:15:00.520Z,20.20
2019-05-29T12:17:21.736Z,20.20
2019-05-29T12:23:16.300Z,19.80
2019-05-29T12:25:19.388Z,19.60
2019-05-29T12:27:48.192Z,19.40
2019-05-29T12:30:17.377Z,19.20
2019-05-29T12:32:50.257Z,19.70
2019-05-29T12:35:19.459Z,19.70
2019-05-29T12:37:48.202Z,19.90
2019-05-29T12:40:24.057Z,20.00
2019-05-29T12:42:53.587Z,20.10
2019-05-29T12:45:23.263Z,19.70
2019-05-29T12:47:53.833Z,19.80
2019-05-29T12:50:23.035Z,20.30
2019-05-29T12:52:51.862Z,20.50
2019-05-29T12:55:20.661Z,20.90
2019-05-29T12:57:49.483Z,20.90
2019-05-29T13:00:39.142Z,21.10
2019-05-29T13:03:07.954Z,20.70
2019-05-29T13:05:36.745Z,20.30
2019-05-29T13:08:05.618Z,20.20
2019-05-29T13:10:34.443Z,20.00
2019-05-29T13:13:10.046Z,20.20
2019-05-29T13:15:34.915Z,20.20
2019-05-29T13:18:28.419Z,20.30
2019-05-29T13:20:57.269Z,20.30
2019-05-29T13:23:26.054Z,20.10
2019-05-29T13:26:02.294Z,19.70
2019-05-29T13:28:31.394Z,19.70
2019-05-29T13:31:00.303Z,20.60
2019-05-29T13:33:29.163Z,20.60
2019-05-29T13:35:58.135Z,20.50
2019-05-29T13:38:27.101Z,20.60
2019-05-29T13:40:56.282Z,20.90
2019-05-29T13:43:25.213Z,21.00
2019-05-29T13:45:54.033Z,21.50
2019-05-29T13:48:23.534Z,21.50
2019-05-29T13:50:56.995Z,21.10
2019-05-29T13:53:25.909Z,21.10
2019-05-29T13:55:54.831Z,21.10
2019-05-29T13:58:26.441Z,21.50
2019-05-29T14:00:55.488Z,21.40
2019-05-29T14:03:24.467Z,21.40
2019-05-29T14:06:26.739Z,21.90
2019-05-29T14:08:55.709Z,22.00
2019-05-29T14:11:32.251Z,21.50
2019-05-29T14:14:01.295Z,21.80
2019-05-29T14:16:30.152Z,22.00
2019-05-29T14:18:58.938Z,22.60
2019-05-29T14:21:28.727Z,22.70
2019-05-29T14:24:00.368Z,22.60
2019-05-29T14:26:29.718Z,23.00
2019-05-29T14:28:58.610Z,23.00
2019-05-29T14:31:30.893Z,22.50
2019-05-29T14:34:00.874Z,22.40
2019-05-29T14:36:29.981Z,22.80
2019-05-29T14:38:58.852Z,21.90
2019-05-29T14:41:33.238Z,21.40
2019-05-29T14:44:02.176Z,21.10
2019-05-29T14:46:31.144Z,20.90
2019-05-29T14:49:13.411Z,20.80
2019-05-29T14:51:41.965Z,20.40
2019-05-29T14:54:11.030Z,20.40
2019-05-29T14:56:39.974Z,20.40
2019-05-29T14:59:09.339Z,20.40
2019-05-29T15:01:38.246Z,20.40
2019-05-29T15:04:07.581Z,20.40
2019-05-29T15:06:36.451Z,20.30
2019-05-29T15:09:10.245Z,20.20
2019-05-29T15:11:39.045Z,20.10
2019-05-29T15:14:08.106Z,20.10
2019-05-29T15:16:38.208Z,20.50
2019-05-29T15:19:07.238Z,20.50
2019-05-29T15:21:36.039Z,21.60
2019-05-29T15:24:05.704Z,22.70
2019-05-29T15:26:36.466Z,24.20
2019-05-29T15:29:06.376Z,24.70
2019-05-29T15:31:35.149Z,25.20
2019-05-29T15:34:04.084Z,26.10
2019-05-29T15:36:32.916Z,26.00
2019-05-29T15:39:01.610Z,26.00
2019-05-29T15:41:30.395Z,25.70
2019-05-29T15:43:59.254Z,26.10
2019-05-29T15:46:28.011Z,27.10
2019-05-29T15:48:56.869Z,26.70
2019-05-29T15:51:25.625Z,27.00
2019-05-29T15:53:54.385Z,27.10
2019-05-29T15:56:27.897Z,27.20
2019-05-29T15:58:53.530Z,26.80
2019-05-29T16:01:22.340Z,25.90
2019-05-29T16:03:50.961Z,24.40
2019-05-29T16:06:19.752Z,23.10
2019-05-29T16:08:48.518Z,22.00
2019-05-29T16:11:18.831Z,21.60
2019-05-29T16:13:47.712Z,21.10
2019-05-29T16:16:17.304Z,20.30
2019-05-29T16:18:46.093Z,20.30
2019-05-29T16:21:14.846Z,20.10
2019-05-29T16:23:43.725Z,20.00
2019-05-29T16:26:13.095Z,20.30
2019-05-29T16:28:41.950Z,20.70
2019-05-29T16:31:10.718Z,20.80
2019-05-29T16:33:39.477Z,21.50
2019-05-29T16:36:08.172Z,22.70
2019-05-29T16:38:36.945Z,23.20
2019-05-29T16:41:05.742Z,23.10
2019-05-29T16:43:34.455Z,22.70
2019-05-29T16:46:03.272Z,21.80
2019-05-29T16:48:31.889Z,21.10
2019-05-29T16:51:00.730Z,20.20
2019-05-29T16:53:29.491Z,20.50
2019-05-29T16:55:58.119Z,21.80
2019-05-29T16:58:26.904Z,23.50
2019-05-29T17:00:55.688Z,24.50
2019-05-29T17:03:24.462Z,25.00
2019-05-29T17:05:53.222Z,25.60
2019-05-29T17:08:22.322Z,26.50
2019-05-29T17:10:51.085Z,26.90
2019-05-29T17:13:20.647Z,26.40
2019-05-29T17:15:49.379Z,25.80
2019-05-29T17:18:18.869Z,25.00
2019-05-29T17:20:52.635Z,25.00
2019-05-29T17:23:21.410Z,25.60
2019-05-29T17:25:50.194Z,26.20
2019-05-29T17:28:22.572Z,26.30
2019-05-29T17:30:49.199Z,26.20
2019-05-29T17:33:19.009Z,25.90
2019-05-29T17:35:48.190Z,25.80
2019-05-29T17:38:17.067Z,26.30
2019-05-29T17:40:45.861Z,26.70
2019-05-29T17:43:16.469Z,26.50
2019-05-29T17:45:45.116Z,26.80
2019-05-29T17:48:13.893Z,27.00
2019-05-29T17:50:42.552Z,27.30
2019-05-29T17:53:11.268Z,27.10
2019-05-29T17:55:40.074Z,26.80
2019-05-29T17:58:09.464Z,26.60
2019-05-29T18:00:38.332Z,26.00
2019-05-29T18:03:07.124Z,26.00
2019-05-29T18:05:36.866Z,26.20
2019-05-29T18:08:05.805Z,25.90
2019-05-29T18:10:34.581Z,25.30
2019-05-29T18:13:03.253Z,24.50
2019-05-29T18:15:32.023Z,23.40
2019-05-29T18:18:00.769Z,22.30
2019-05-29T18:20:29.528Z,21.40
2019-05-29T18:22:58.294Z,20.60
2019-05-29T18:25:28.116Z,20.10
2019-05-29T18:27:57.073Z,19.60
2019-05-29T18:30:26.364Z,19.10
2019-05-29T18:32:55.197Z,18.80
2019-05-29T18:35:24.880Z,18.70
2019-05-29T18:37:53.816Z,18.50
2019-05-29T18:40:22.613Z,18.20
2019-05-29T18:42:51.289Z,17.90
2019-05-29T18:45:22.953Z,17.70
2019-05-29T18:47:50.723Z,17.80
2019-05-29T18:50:19.674Z,17.30
2019-05-29T18:52:48.546Z,17.00
2019-05-29T18:55:17.417Z,17.00
2019-05-29T18:57:46.203Z,16.80
2019-05-29T19:00:21.143Z,16.60
2019-05-29T19:02:50.123Z,16.40
2019-05-29T19:05:19.060Z,16.30
2019-05-29T19:07:47.816Z,16.20
2019-05-29T19:10:16.898Z,16.00
2019-05-29T19:12:45.758Z,15.90
2019-05-29T19:15:15.487Z,15.80
2019-05-29T19:17:44.217Z,15.50
2019-05-29T19:20:16.138Z,15.50
2019-05-29T19:22:44.867Z,15.30
2019-05-29T19:25:13.735Z,15.20
2019-05-29T19:27:42.620Z,15.20
2019-05-29T19:30:15.101Z,15.10
2019-05-29T19:32:43.869Z,15.10
2019-05-29T19:38:14.185Z,14.90
2019-05-29T19:40:43.243Z,14.80
2019-05-29T19:45:40.620Z,14.50
2019-05-29T19:48:13.002Z,14.50
2019-05-29T19:50:42.090Z,14.40
2019-05-29T19:53:10.904Z,14.30
2019-05-29T19:55:39.749Z,14.30
2019-05-29T20:01:06.906Z,14.10
2019-05-29T20:03:36.668Z,14.00
2019-05-29T20:06:05.792Z,14.00
2019-05-29T20:08:37.544Z,13.90
2019-05-29T20:11:07.512Z,13.90
2019-05-29T20:13:36.303Z,13.70
2019-05-29T20:18:34.171Z,13.60
2019-05-29T20:21:03.319Z,13.60
2019-05-29T20:23:32.545Z,13.50
2019-05-29T20:26:04.642Z,13.50
2019-05-29T20:28:34.263Z,13.40
2019-05-29T20:31:03.270Z,13.30
2019-05-29T20:33:32.484Z,13.30
2019-05-29T20:36:02.592Z,13.20
2019-05-29T20:38:31.366Z,13.00
2019-05-29T20:41:02.192Z,13.10
2019-05-29T20:43:31.540Z,13.00
2019-05-29T20:46:04.574Z,12.90
2019-05-29T20:48:34.583Z,12.70
2019-05-29T20:51:03.485Z,12.70
2019-05-29T20:53:33.407Z,12.60
2019-05-29T20:56:03.311Z,12.60
2019-05-29T20:58:32.108Z,12.50
2019-05-29T21:01:03.196Z,12.50
2019-05-29T21:03:34.345Z,12.50
2019-05-29T21:06:04.110Z,12.50
2019-05-29T21:08:37.382Z,12.50
2019-05-29T21:11:06.333Z,12.30
2019-05-29T21:13:39.724Z,12.30
2019-05-29T21:16:27.777Z,12.20
2019-05-29T21:18:56.558Z,12.20
2019-05-29T21:21:25.421Z,12.10
2019-05-29T21:23:54.235Z,12.10
2019-05-29T21:26:23.112Z,12.00
2019-05-29T21:28:51.875Z,12.00
2019-05-29T21:31:21.653Z,11.90
2019-05-29T21:33:50.476Z,11.80
2019-05-29T21:36:20.256Z,11.80
2019-05-29T21:38:49.118Z,11.70
2019-05-29T21:41:17.995Z,11.60
2019-05-29T21:43:47.063Z,11.50
2019-05-29T21:46:27.851Z,11.40
2019-05-29T21:48:56.637Z,11.40
2019-05-29T21:51:39.248Z,11.40
2019-05-29T21:54:08.344Z,11.20
2019-05-29T21:57:16.876Z,11.20
2019-05-29T21:59:45.888Z,11.10
2019-05-29T22:02:19.831Z,11.00
2019-05-29T22:04:48.807Z,11.00
2019-05-29T22:07:25.245Z,11.00
2019-05-29T22:09:54.466Z,11.00
2019-05-29T22:12:26.442Z,10.90
2019-05-29T22:14:55.263Z,10.80
2019-05-29T22:17:24.041Z,10.90
2019-05-29T22:19:52.891Z,10.80
2019-05-29T22:22:21.706Z,10.80
2019-05-29T22:24:51.093Z,10.80
2019-05-29T22:27:24.286Z,10.70
2019-05-29T22:29:53.559Z,10.60
2019-05-29T22:32:37.679Z,10.60
2019-05-29T22:35:07.303Z,10.60
2019-05-29T22:37:53.375Z,10.60
2019-05-29T22:40:23.092Z,10.50
2019-05-29T22:42:53.917Z,10.50
2019-05-29T22:45:22.714Z,10.50
2019-05-29T22:47:57.749Z,10.50
2019-05-29T22:50:26.698Z,10.50
2019-05-29T22:52:55.880Z,10.40
2019-05-29T22:55:24.706Z,10.40
2019-05-29T22:57:55.928Z,10.30
2019-05-29T23:00:24.936Z,10.30
2019-05-29T23:02:56.115Z,10.20
2019-05-29T23:05:25.092Z,10.20
2019-05-29T23:08:22.266Z,10.10
2019-05-29T23:11:10.295Z,10.10
2019-05-29T23:13:45.427Z,10.10
2019-05-29T23:18:42.685Z,10.00
2019-05-29T23:21:11.470Z,10.00
2019-05-29T23:23:45.594Z,10.00
2019-05-29T23:28:43.768Z,9.90
2019-05-29T23:31:12.565Z,9.80
2019-05-29T23:34:03.289Z,9.80
2019-05-29T23:36:32.210Z,9.80
2019-05-29T23:39:03.645Z,9.60
2019-05-29T23:41:32.458Z,9.60
2019-05-29T23:44:05.153Z,9.50
2019-05-29T23:46:34.006Z,9.50
2019-05-29T23:49:03.937Z,9.50
2019-05-29T23:51:32.837Z,9.50
2019-05-29T23:54:01.907Z,9.50
2019-05-29T23:56:30.783Z,9.60
2019-05-29T23:58:59.898Z,9.60
